Details From KWHP - Whiteman
To KOXR - Oxnard
Flight Number -
Tags Novice Decoded
Created
Modified
Stats Distance 41 nm / 75 km
Max Altitude 5,000 ft / 1,524 m
Waypoints 5
Social Downloads 11
Likes 0
Share VATSIM

Download

Looking for another format? Having issues loading an existing format? Contact us
Advertisement - Login to hide

Notes

Decoded

Route

KWHP VNY SUANA GUYBE KOXR

ID Type Via Altitude Latitude Longitude Leg Dist Tot Dist Heading (true) Name
O KWHP APT - 0 ft / 0 m 34.26358˚ -118.41803˚ - 0 nm - -
VNY VOR - 1,313 ft / 400 m 34.22344˚ -118.49167˚ 4 nm 4 nm 237° / 237° VAN NUYS VOR-DME
SUANA FIX - 4,725 ft / 1,440 m 34.22322˚ -118.72075˚ 11 nm 15 nm 270° / 270° -
GUYBE FIX - 5,000 ft / 1,524 m 34.19733˚ -118.82267˚ 5 nm 21 nm 253° / 253° -
O KOXR APT - 0 ft / 0 m 34.20089˚ -119.21710˚ 19 nm 40 nm 271° / 271° -

Altitude Profile

Advertisement - Login to hide

KWHP

Details ICAO KWHP (WHP)
Name WHITEMAN
Region United States
Timezone America/Los_Angeles (UTC-7.0)
Stats Elevation 1,003 ft / 306 m (AMSL)
Location 34.259285° -118.413490°
Runways 1
Magnetic Variation 12.030° E

METAR

KWHP 260055Z 20010KT 10SM OVC045 19/07 A3007

Decode

TAF

Not found

Departure Runways

ID Width Length Bearing (true) Bearing (mag) Surface Threshold Offset Overrun Length
12 75 ft / 23 m 4,164 ft / 1,269 m 138.87° 126.84° Asphalt 728 ft / 222 m 49 ft / 15 m
30 75 ft / 23 m 4,164 ft / 1,269 m 318.87° 306.84° Asphalt 479 ft / 146 m 69 ft / 21 m

KOXR

Details ICAO KOXR (OXR)
Name Oxnard
Region United States
Timezone America/Los_Angeles (UTC-7.0)
Stats Elevation 43 ft / 13 m (AMSL)
Location 34.200819° -119.207233°
Runways 1
Magnetic Variation 12.172° E

METAR

KOXR 260051Z 27012KT 10SM FEW060 17/12 A3007 RMK AO2 SLP182 T01720117

Decode

TAF

TAF KOXR 260003Z 2600/2624 27014G20KT P6SM SCT020 SCT040 FM260400 28007KT P6SM FEW015 FEW040 FM260900 VRB03KT P6SM BKN010 FM261200 VRB03KT P6SM OVC010 FM261600 26008KT P6SM BKN015 FM261800 27012KT P6SM SCT015 FM262200 27015G22KT P6SM FEW015

Decode

Destination Runways

ID Width Length Bearing (true) Bearing (mag) Surface Threshold Offset Overrun Length
07 98 ft / 30 m 5,953 ft / 1,815 m 90.53° 78.36° Asphalt 0 ft / 0 m 0 ft / 0 m
25 98 ft / 30 m 5,953 ft / 1,815 m 270.54° 258.37° Asphalt 1,378 ft / 420 m 0 ft / 0 m

Approach Navaids

Runway Type Ident Frequency Range Bearing (true) Bearing (mag) Slope Elevation
25 Localiser IOXR 108.70 MHz 18 nm / 33 km 270.48° 258.30° - 28 ft / 9 m (AMSL)
25 Glidescope IOXR 108.70 MHz 10 nm / 19 km 270.53° 258.36° 3.00° 41 ft / 12 m (AMSL)